Woburn, Illinois
Current Conditions -  °F | °C
As of 12:55 AM on Monday 24 Nov 2014 (Local Time) from K3LF Reporting Station
Light Rain Light Rain  
Wind Chill: 51°   Ceiling: 100
Heat Index: 51°   Visibility: 0.5mi
Dew Point: 50°   Wind: 5mph
Humidity: 95%   Direction: 180°S
Pressure: 29.18"   Gusts: NA
Location:  38.895°N, 89.397°W
Report Text: K3LF 240655Z AUTO 18004KT 1/2SM -RA OVC001 11/10 A2918 RMK AO2 LTG DSNT SW T01070100
Loading
Personal Weather Stations






























Interactive Weather Map New forecast layout! Learn more

10-Day Weather Forecast

Advertisements
Track Severe Weather on mobile